sensor_id;sensor_type;location;lat;lon;timestamp;P1;durP1;ratioP1;P2;durP2;ratioP2
487;SDS011;16586;48.976;9.584;2023-02-22T00:00:10;3.75;;;2.63;;
487;SDS011;16586;48.976;9.584;2023-02-22T00:02:47;2.88;;;2.50;;
487;SDS011;16586;48.976;9.584;2023-02-22T00:05:14;2.47;;;2.30;;
487;SDS011;16586;48.976;9.584;2023-02-22T00:07:44;2.30;;;2.20;;
487;SDS011;16586;48.976;9.584;2023-02-22T00:10:13;2.42;;;2.15;;
487;SDS011;16586;48.976;9.584;2023-02-22T00:12:45;2.70;;;2.45;;
487;SDS011;16586;48.976;9.584;2023-02-22T00:15:13;3.20;;;2.20;;
487;SDS011;16586;48.976;9.584;2023-02-22T00:17:41;3.70;;;3.15;;
487;SDS011;16586;48.976;9.584;2023-02-22T00:20:09;2.55;;;2.40;;
487;SDS011;16586;48.976;9.584;2023-02-22T00:22:39;3.53;;;3.15;;
487;SDS011;16586;48.976;9.584;2023-02-22T00:25:07;3.88;;;3.35;;
487;SDS011;16586;48.976;9.584;2023-02-22T00:27:35;3.33;;;3.08;;
487;SDS011;16586;48.976;9.584;2023-02-22T00:30:02;4.20;;;3.90;;
487;SDS011;16586;48.976;9.584;2023-02-22T00:32:30;3.60;;;3.47;;
487;SDS011;16586;48.976;9.584;2023-02-22T00:34:57;3.65;;;3.00;;
487;SDS011;16586;48.976;9.584;2023-02-22T00:37:24;3.90;;;3.42;;
487;SDS011;16586;48.976;9.584;2023-02-22T00:39:51;3.53;;;3.20;;
487;SDS011;16586;48.976;9.584;2023-02-22T00:42:18;3.30;;;2.97;;
487;SDS011;16586;48.976;9.584;2023-02-22T00:44:47;3.40;;;3.20;;
487;SDS011;16586;48.976;9.584;2023-02-22T00:47:14;3.70;;;2.95;;
487;SDS011;16586;48.976;9.584;2023-02-22T00:49:42;3.00;;;2.85;;
487;SDS011;16586;48.976;9.584;2023-02-22T00:52:08;3.60;;;3.00;;
487;SDS011;16586;48.976;9.584;2023-02-22T00:54:35;3.63;;;3.00;;
487;SDS011;16586;48.976;9.584;2023-02-22T00:57:02;3.45;;;3.00;;
487;SDS011;16586;48.976;9.584;2023-02-22T00:59:30;3.83;;;3.33;;
487;SDS011;16586;48.976;9.584;2023-02-22T01:01:58;3.40;;;3.28;;
487;SDS011;16586;48.976;9.584;2023-02-22T01:04:25;3.83;;;3.30;;
487;SDS011;16586;48.976;9.584;2023-02-22T01:06:52;2.85;;;2.70;;
487;SDS011;16586;48.976;9.584;2023-02-22T01:09:19;3.90;;;2.85;;
487;SDS011;16586;48.976;9.584;2023-02-22T01:11:47;2.70;;;2.50;;
487;SDS011;16586;48.976;9.584;2023-02-22T01:14:19;2.70;;;2.50;;
487;SDS011;16586;48.976;9.584;2023-02-22T01:16:47;2.28;;;2.00;;
487;SDS011;16586;48.976;9.584;2023-02-22T01:19:16;2.50;;;2.40;;
487;SDS011;16586;48.976;9.584;2023-02-22T01:21:43;2.20;;;2.00;;
487;SDS011;16586;48.976;9.584;2023-02-22T01:24:11;2.08;;;1.92;;
487;SDS011;16586;48.976;9.584;2023-02-22T01:26:40;2.72;;;2.35;;
487;SDS011;16586;48.976;9.584;2023-02-22T01:29:07;2.53;;;2.30;;
487;SDS011;16586;48.976;9.584;2023-02-22T01:31:39;2.38;;;2.10;;
487;SDS011;16586;48.976;9.584;2023-02-22T01:34:08;2.35;;;2.15;;
487;SDS011;16586;48.976;9.584;2023-02-22T01:36:36;2.55;;;2.10;;
487;SDS011;16586;48.976;9.584;2023-02-22T01:39:04;2.80;;;2.07;;
487;SDS011;16586;48.976;9.584;2023-02-22T01:41:31;2.72;;;2.28;;
487;SDS011;16586;48.976;9.584;2023-02-22T01:46:44;1.88;;;1.80;;
487;SDS011;16586;48.976;9.584;2023-02-22T01:49:11;2.35;;;2.20;;
487;SDS011;16586;48.976;9.584;2023-02-22T01:51:41;2.60;;;2.00;;
487;SDS011;16586;48.976;9.584;2023-02-22T01:54:11;1.92;;;1.80;;
487;SDS011;16586;48.976;9.584;2023-02-22T01:56:45;2.27;;;1.90;;
487;SDS011;16586;48.976;9.584;2023-02-22T01:59:22;2.50;;;2.35;;
487;SDS011;16586;48.976;9.584;2023-02-22T02:01:57;2.60;;;2.20;;
487;SDS011;16586;48.976;9.584;2023-02-22T02:04:24;2.57;;;2.43;;
487;SDS011;16586;48.976;9.584;2023-02-22T02:06:54;2.60;;;2.40;;
487;SDS011;16586;48.976;9.584;2023-02-22T02:09:25;2.63;;;2.20;;
487;SDS011;16586;48.976;9.584;2023-02-22T02:11:57;2.30;;;1.98;;
487;SDS011;16586;48.976;9.584;2023-02-22T02:14:27;2.10;;;2.00;;
487;SDS011;16586;48.976;9.584;2023-02-22T02:16:56;2.57;;;2.00;;
487;SDS011;16586;48.976;9.584;2023-02-22T02:22:18;3.10;;;2.20;;
487;SDS011;16586;48.976;9.584;2023-02-22T02:31:17;2.10;;;1.90;;
487;SDS011;16586;48.976;9.584;2023-02-22T02:33:54;2.45;;;2.08;;
487;SDS011;16586;48.976;9.584;2023-02-22T02:36:28;2.35;;;2.20;;
487;SDS011;16586;48.976;9.584;2023-02-22T02:39:01;2.40;;;2.20;;
487;SDS011;16586;48.976;9.584;2023-02-22T02:41:32;2.47;;;1.80;;
487;SDS011;16586;48.976;9.584;2023-02-22T02:44:03;1.83;;;1.83;;
487;SDS011;16586;48.976;9.584;2023-02-22T02:46:36;2.00;;;1.70;;
487;SDS011;16586;48.976;9.584;2023-02-22T02:49:13;2.50;;;2.00;;
487;SDS011;16586;48.976;9.584;2023-02-22T02:51:46;3.00;;;1.90;;
487;SDS011;16586;48.976;9.584;2023-02-22T02:54:15;2.30;;;2.07;;
487;SDS011;16586;48.976;9.584;2023-02-22T02:56:44;2.40;;;2.20;;
487;SDS011;16586;48.976;9.584;2023-02-22T02:59:22;2.50;;;2.20;;
487;SDS011;16586;48.976;9.584;2023-02-22T03:01:54;2.20;;;1.90;;
487;SDS011;16586;48.976;9.584;2023-02-22T03:04:35;3.40;;;1.92;;
487;SDS011;16586;48.976;9.584;2023-02-22T03:10:02;3.28;;;2.30;;
487;SDS011;16586;48.976;9.584;2023-02-22T03:12:41;2.30;;;2.10;;
487;SDS011;16586;48.976;9.584;2023-02-22T03:15:17;2.13;;;1.90;;
487;SDS011;16586;48.976;9.584;2023-02-22T03:17:55;2.30;;;2.17;;
487;SDS011;16586;48.976;9.584;2023-02-22T03:20:30;2.40;;;2.10;;
487;SDS011;16586;48.976;9.584;2023-02-22T03:23:05;3.00;;;1.95;;
487;SDS011;16586;48.976;9.584;2023-02-22T03:25:39;3.40;;;2.10;;
487;SDS011;16586;48.976;9.584;2023-02-22T03:28:12;2.40;;;2.20;;
487;SDS011;16586;48.976;9.584;2023-02-22T03:30:43;2.95;;;2.35;;
487;SDS011;16586;48.976;9.584;2023-02-22T03:33:14;2.03;;;1.88;;
487;SDS011;16586;48.976;9.584;2023-02-22T03:35:54;2.35;;;2.17;;
487;SDS011;16586;48.976;9.584;2023-02-22T03:38:28;2.28;;;2.08;;
487;SDS011;16586;48.976;9.584;2023-02-22T03:40:58;2.40;;;2.10;;
487;SDS011;16586;48.976;9.584;2023-02-22T03:43:28;1.90;;;1.90;;
487;SDS011;16586;48.976;9.584;2023-02-22T03:45:58;2.60;;;2.00;;
487;SDS011;16586;48.976;9.584;2023-02-22T03:48:29;2.10;;;1.90;;
487;SDS011;16586;48.976;9.584;2023-02-22T03:51:03;2.30;;;2.10;;
487;SDS011;16586;48.976;9.584;2023-02-22T03:53:31;2.50;;;2.30;;
487;SDS011;16586;48.976;9.584;2023-02-22T03:56:01;2.70;;;2.08;;
487;SDS011;16586;48.976;9.584;2023-02-22T03:58:31;2.25;;;2.05;;
487;SDS011;16586;48.976;9.584;2023-02-22T04:01:00;2.78;;;2.58;;
487;SDS011;16586;48.976;9.584;2023-02-22T04:03:27;2.72;;;2.30;;
487;SDS011;16586;48.976;9.584;2023-02-22T04:05:54;2.80;;;2.60;;
487;SDS011;16586;48.976;9.584;2023-02-22T04:08:24;2.55;;;2.10;;
487;SDS011;16586;48.976;9.584;2023-02-22T04:10:51;2.20;;;2.10;;
487;SDS011;16586;48.976;9.584;2023-02-22T04:13:18;2.10;;;2.00;;
487;SDS011;16586;48.976;9.584;2023-02-22T04:15:45;2.50;;;2.20;;
487;SDS011;16586;48.976;9.584;2023-02-22T04:18:15;1.95;;;1.63;;
487;SDS011;16586;48.976;9.584;2023-02-22T04:20:42;2.38;;;2.00;;
487;SDS011;16586;48.976;9.584;2023-02-22T04:23:09;2.10;;;2.00;;
487;SDS011;16586;48.976;9.584;2023-02-22T04:25:37;2.20;;;2.00;;
487;SDS011;16586;48.976;9.584;2023-02-22T04:28:04;2.83;;;1.70;;
487;SDS011;16586;48.976;9.584;2023-02-22T04:30:31;2.05;;;1.92;;
487;SDS011;16586;48.976;9.584;2023-02-22T04:32:58;2.40;;;2.20;;
487;SDS011;16586;48.976;9.584;2023-02-22T04:35:25;2.50;;;2.30;;
487;SDS011;16586;48.976;9.584;2023-02-22T04:37:51;2.33;;;2.17;;
487;SDS011;16586;48.976;9.584;2023-02-22T04:40:18;2.30;;;2.10;;
487;SDS011;16586;48.976;9.584;2023-02-22T04:42:47;3.20;;;2.00;;
487;SDS011;16586;48.976;9.584;2023-02-22T04:45:14;2.30;;;2.10;;
487;SDS011;16586;48.976;9.584;2023-02-22T04:47:41;2.85;;;2.50;;
487;SDS011;16586;48.976;9.584;2023-02-22T04:50:08;2.17;;;2.00;;
487;SDS011;16586;48.976;9.584;2023-02-22T04:52:36;2.20;;;2.07;;
487;SDS011;16586;48.976;9.584;2023-02-22T04:55:03;2.50;;;2.40;;
487;SDS011;16586;48.976;9.584;2023-02-22T04:57:31;2.37;;;2.17;;
487;SDS011;16586;48.976;9.584;2023-02-22T04:59:59;4.30;;;2.53;;
487;SDS011;16586;48.976;9.584;2023-02-22T05:02:26;2.40;;;2.20;;
487;SDS011;16586;48.976;9.584;2023-02-22T05:04:53;2.50;;;2.25;;
487;SDS011;16586;48.976;9.584;2023-02-22T05:07:20;2.50;;;2.30;;
487;SDS011;16586;48.976;9.584;2023-02-22T05:09:47;2.40;;;2.30;;
487;SDS011;16586;48.976;9.584;2023-02-22T05:12:14;2.95;;;2.70;;
487;SDS011;16586;48.976;9.584;2023-02-22T05:14:40;2.17;;;2.00;;
487;SDS011;16586;48.976;9.584;2023-02-22T05:17:09;2.30;;;1.80;;
487;SDS011;16586;48.976;9.584;2023-02-22T05:19:36;2.22;;;2.03;;
487;SDS011;16586;48.976;9.584;2023-02-22T05:22:03;2.53;;;1.80;;
487;SDS011;16586;48.976;9.584;2023-02-22T05:24:30;2.60;;;2.10;;
487;SDS011;16586;48.976;9.584;2023-02-22T05:26:57;2.38;;;2.28;;
487;SDS011;16586;48.976;9.584;2023-02-22T05:29:24;2.00;;;1.90;;
487;SDS011;16586;48.976;9.584;2023-02-22T05:31:51;2.30;;;2.08;;
487;SDS011;16586;48.976;9.584;2023-02-22T05:34:19;2.15;;;1.90;;
487;SDS011;16586;48.976;9.584;2023-02-22T05:36:46;2.55;;;2.35;;
487;SDS011;16586;48.976;9.584;2023-02-22T05:39:13;2.40;;;2.20;;
487;SDS011;16586;48.976;9.584;2023-02-22T05:41:40;2.40;;;2.20;;
487;SDS011;16586;48.976;9.584;2023-02-22T05:44:07;1.90;;;1.80;;
487;SDS011;16586;48.976;9.584;2023-02-22T05:46:34;2.28;;;2.17;;
487;SDS011;16586;48.976;9.584;2023-02-22T05:49:00;2.75;;;2.17;;
487;SDS011;16586;48.976;9.584;2023-02-22T05:51:29;2.22;;;2.10;;
487;SDS011;16586;48.976;9.584;2023-02-22T05:53:56;2.83;;;2.65;;
487;SDS011;16586;48.976;9.584;2023-02-22T05:56:23;3.20;;;2.83;;
487;SDS011;16586;48.976;9.584;2023-02-22T05:58:50;3.50;;;3.30;;
487;SDS011;16586;48.976;9.584;2023-02-22T06:01:17;3.63;;;3.42;;
487;SDS011;16586;48.976;9.584;2023-02-22T06:03:45;3.50;;;3.00;;
487;SDS011;16586;48.976;9.584;2023-02-22T06:06:13;3.20;;;2.63;;
487;SDS011;16586;48.976;9.584;2023-02-22T06:08:41;3.00;;;2.80;;
487;SDS011;16586;48.976;9.584;2023-02-22T06:11:09;3.10;;;2.20;;
487;SDS011;16586;48.976;9.584;2023-02-22T06:13:36;2.70;;;2.58;;
487;SDS011;16586;48.976;9.584;2023-02-22T06:16:03;2.50;;;2.25;;
487;SDS011;16586;48.976;9.584;2023-02-22T06:18:31;3.30;;;2.50;;
487;SDS011;16586;48.976;9.584;2023-02-22T06:20:58;3.63;;;3.00;;
487;SDS011;16586;48.976;9.584;2023-02-22T06:23:25;3.08;;;2.88;;
487;SDS011;16586;48.976;9.584;2023-02-22T06:25:56;3.00;;;2.80;;
487;SDS011;16586;48.976;9.584;2023-02-22T06:28:31;3.28;;;3.03;;
487;SDS011;16586;48.976;9.584;2023-02-22T06:30:58;3.00;;;2.88;;
487;SDS011;16586;48.976;9.584;2023-02-22T06:33:25;3.33;;;2.70;;
487;SDS011;16586;48.976;9.584;2023-02-22T06:35:52;3.15;;;3.03;;
487;SDS011;16586;48.976;9.584;2023-02-22T06:38:19;3.58;;;3.38;;
487;SDS011;16586;48.976;9.584;2023-02-22T06:40:47;3.33;;;3.13;;
487;SDS011;16586;48.976;9.584;2023-02-22T06:43:15;2.58;;;2.42;;
487;SDS011;16586;48.976;9.584;2023-02-22T06:45:42;3.60;;;2.80;;
487;SDS011;16586;48.976;9.584;2023-02-22T06:48:09;3.40;;;3.10;;
487;SDS011;16586;48.976;9.584;2023-02-22T06:50:35;3.35;;;3.10;;
487;SDS011;16586;48.976;9.584;2023-02-22T06:53:03;2.60;;;2.40;;
487;SDS011;16586;48.976;9.584;2023-02-22T06:55:31;3.50;;;3.30;;
487;SDS011;16586;48.976;9.584;2023-02-22T06:58:06;3.13;;;2.80;;
487;SDS011;16586;48.976;9.584;2023-02-22T07:00:34;3.15;;;2.95;;
487;SDS011;16586;48.976;9.584;2023-02-22T07:03:01;3.10;;;2.90;;
487;SDS011;16586;48.976;9.584;2023-02-22T07:05:30;2.80;;;2.60;;
487;SDS011;16586;48.976;9.584;2023-02-22T07:08:00;3.53;;;3.33;;
487;SDS011;16586;48.976;9.584;2023-02-22T07:10:30;3.10;;;2.90;;
487;SDS011;16586;48.976;9.584;2023-02-22T07:13:01;3.47;;;3.25;;
487;SDS011;16586;48.976;9.584;2023-02-22T07:15:29;3.80;;;3.00;;
487;SDS011;16586;48.976;9.584;2023-02-22T07:17:59;3.10;;;3.00;;
487;SDS011;16586;48.976;9.584;2023-02-22T07:20:27;3.30;;;3.10;;
487;SDS011;16586;48.976;9.584;2023-02-22T07:22:54;4.15;;;3.92;;
487;SDS011;16586;48.976;9.584;2023-02-22T07:25:22;2.92;;;2.63;;
487;SDS011;16586;48.976;9.584;2023-02-22T07:27:49;3.10;;;2.90;;
487;SDS011;16586;48.976;9.584;2023-02-22T07:30:18;2.60;;;2.40;;
487;SDS011;16586;48.976;9.584;2023-02-22T07:32:49;3.75;;;2.60;;
487;SDS011;16586;48.976;9.584;2023-02-22T07:35:18;2.60;;;2.40;;
487;SDS011;16586;48.976;9.584;2023-02-22T07:38:02;2.55;;;2.08;;
487;SDS011;16586;48.976;9.584;2023-02-22T07:40:35;2.50;;;2.20;;
487;SDS011;16586;48.976;9.584;2023-02-22T07:43:03;2.35;;;2.17;;
487;SDS011;16586;48.976;9.584;2023-02-22T07:45:31;2.38;;;2.20;;
487;SDS011;16586;48.976;9.584;2023-02-22T07:47:59;2.42;;;1.58;;
487;SDS011;16586;48.976;9.584;2023-02-22T07:50:28;2.17;;;2.08;;
487;SDS011;16586;48.976;9.584;2023-02-22T07:52:56;1.90;;;1.83;;
487;SDS011;16586;48.976;9.584;2023-02-22T07:55:25;2.58;;;2.00;;
487;SDS011;16586;48.976;9.584;2023-02-22T07:57:53;2.13;;;1.98;;
487;SDS011;16586;48.976;9.584;2023-02-22T08:00:21;2.20;;;2.00;;
487;SDS011;16586;48.976;9.584;2023-02-22T08:02:48;2.42;;;1.95;;
487;SDS011;16586;48.976;9.584;2023-02-22T08:05:16;1.90;;;1.90;;
487;SDS011;16586;48.976;9.584;2023-02-22T08:07:44;2.10;;;1.90;;
487;SDS011;16586;48.976;9.584;2023-02-22T08:10:12;1.98;;;1.77;;
487;SDS011;16586;48.976;9.584;2023-02-22T08:12:40;1.40;;;1.40;;
487;SDS011;16586;48.976;9.584;2023-02-22T08:15:08;2.08;;;1.88;;
487;SDS011;16586;48.976;9.584;2023-02-22T08:17:35;2.77;;;2.57;;
487;SDS011;16586;48.976;9.584;2023-02-22T08:20:03;1.90;;;1.70;;
487;SDS011;16586;48.976;9.584;2023-02-22T08:22:30;2.00;;;1.65;;
487;SDS011;16586;48.976;9.584;2023-02-22T08:24:58;1.70;;;1.60;;
487;SDS011;16586;48.976;9.584;2023-02-22T08:27:26;1.90;;;1.77;;
487;SDS011;16586;48.976;9.584;2023-02-22T08:29:53;2.22;;;2.05;;
487;SDS011;16586;48.976;9.584;2023-02-22T08:32:21;2.20;;;2.00;;
487;SDS011;16586;48.976;9.584;2023-02-22T08:34:48;1.75;;;1.73;;
487;SDS011;16586;48.976;9.584;2023-02-22T08:37:15;2.20;;;1.80;;
487;SDS011;16586;48.976;9.584;2023-02-22T08:39:43;2.20;;;2.10;;
487;SDS011;16586;48.976;9.584;2023-02-22T08:42:11;2.00;;;1.90;;
487;SDS011;16586;48.976;9.584;2023-02-22T08:44:38;2.00;;;1.80;;
487;SDS011;16586;48.976;9.584;2023-02-22T08:47:06;2.50;;;1.67;;
487;SDS011;16586;48.976;9.584;2023-02-22T08:49:33;1.90;;;1.50;;
487;SDS011;16586;48.976;9.584;2023-02-22T08:52:00;2.20;;;2.00;;
487;SDS011;16586;48.976;9.584;2023-02-22T08:54:27;2.20;;;1.60;;
487;SDS011;16586;48.976;9.584;2023-02-22T08:56:54;2.80;;;2.17;;
487;SDS011;16586;48.976;9.584;2023-02-22T08:59:22;1.70;;;1.60;;
487;SDS011;16586;48.976;9.584;2023-02-22T09:01:49;2.58;;;2.40;;
487;SDS011;16586;48.976;9.584;2023-02-22T09:04:16;2.58;;;2.45;;
487;SDS011;16586;48.976;9.584;2023-02-22T09:06:44;2.80;;;2.37;;
487;SDS011;16586;48.976;9.584;2023-02-22T09:09:15;2.58;;;2.38;;
487;SDS011;16586;48.976;9.584;2023-02-22T09:11:45;2.03;;;1.80;;
487;SDS011;16586;48.976;9.584;2023-02-22T09:14:13;2.38;;;2.20;;
487;SDS011;16586;48.976;9.584;2023-02-22T09:16:42;2.47;;;2.28;;
487;SDS011;16586;48.976;9.584;2023-02-22T09:19:09;2.30;;;2.15;;
487;SDS011;16586;48.976;9.584;2023-02-22T09:21:36;1.90;;;1.80;;
487;SDS011;16586;48.976;9.584;2023-02-22T09:24:04;2.70;;;2.50;;
487;SDS011;16586;48.976;9.584;2023-02-22T09:26:32;1.90;;;1.75;;
487;SDS011;16586;48.976;9.584;2023-02-22T09:29:00;2.88;;;2.70;;
487;SDS011;16586;48.976;9.584;2023-02-22T09:31:27;2.40;;;2.25;;
487;SDS011;16586;48.976;9.584;2023-02-22T09:33:55;2.60;;;2.40;;
487;SDS011;16586;48.976;9.584;2023-02-22T09:36:22;2.63;;;2.33;;
487;SDS011;16586;48.976;9.584;2023-02-22T09:38:49;3.05;;;2.47;;
487;SDS011;16586;48.976;9.584;2023-02-22T09:41:17;2.65;;;2.45;;
487;SDS011;16586;48.976;9.584;2023-02-22T09:43:47;1.83;;;1.77;;
487;SDS011;16586;48.976;9.584;2023-02-22T09:46:19;2.70;;;2.20;;
487;SDS011;16586;48.976;9.584;2023-02-22T09:48:54;2.60;;;2.40;;
487;SDS011;16586;48.976;9.584;2023-02-22T09:51:33;3.20;;;3.00;;
487;SDS011;16586;48.976;9.584;2023-02-22T09:54:04;2.30;;;2.10;;
487;SDS011;16586;48.976;9.584;2023-02-22T09:56:32;3.10;;;2.90;;
487;SDS011;16586;48.976;9.584;2023-02-22T09:58:59;2.70;;;2.50;;
487;SDS011;16586;48.976;9.584;2023-02-22T10:01:30;2.70;;;2.50;;
487;SDS011;16586;48.976;9.584;2023-02-22T10:04:03;2.40;;;2.20;;
487;SDS011;16586;48.976;9.584;2023-02-22T10:06:32;2.20;;;2.00;;
487;SDS011;16586;48.976;9.584;2023-02-22T10:09:00;2.95;;;2.80;;
487;SDS011;16586;48.976;9.584;2023-02-22T10:11:42;3.47;;;3.27;;
487;SDS011;16586;48.976;9.584;2023-02-22T10:14:18;3.45;;;3.25;;
487;SDS011;16586;48.976;9.584;2023-02-22T10:16:50;3.30;;;3.10;;
487;SDS011;16586;48.976;9.584;2023-02-22T10:19:25;5.30;;;5.00;;
487;SDS011;16586;48.976;9.584;2023-02-22T10:21:58;2.60;;;2.40;;
487;SDS011;16586;48.976;9.584;2023-02-22T10:24:33;3.67;;;3.47;;
487;SDS011;16586;48.976;9.584;2023-02-22T10:27:04;2.90;;;2.78;;
487;SDS011;16586;48.976;9.584;2023-02-22T10:29:37;2.75;;;2.50;;
487;SDS011;16586;48.976;9.584;2023-02-22T10:32:07;2.63;;;2.42;;
487;SDS011;16586;48.976;9.584;2023-02-22T10:34:41;2.57;;;2.30;;
487;SDS011;16586;48.976;9.584;2023-02-22T10:37:15;3.10;;;2.10;;
487;SDS011;16586;48.976;9.584;2023-02-22T10:39:45;2.60;;;2.47;;
487;SDS011;16586;48.976;9.584;2023-02-22T10:42:14;2.92;;;2.70;;
487;SDS011;16586;48.976;9.584;2023-02-22T10:44:41;2.90;;;2.70;;
487;SDS011;16586;48.976;9.584;2023-02-22T10:47:09;2.20;;;1.95;;
487;SDS011;16586;48.976;9.584;2023-02-22T10:49:39;1.50;;;1.40;;
487;SDS011;16586;48.976;9.584;2023-02-22T10:52:10;1.90;;;1.90;;
487;SDS011;16586;48.976;9.584;2023-02-22T10:54:40;2.58;;;2.45;;
487;SDS011;16586;48.976;9.584;2023-02-22T10:57:08;1.67;;;1.58;;
487;SDS011;16586;48.976;9.584;2023-02-22T10:59:38;2.30;;;2.10;;
487;SDS011;16586;48.976;9.584;2023-02-22T11:02:07;2.75;;;2.55;;
487;SDS011;16586;48.976;9.584;2023-02-22T11:04:44;2.38;;;1.77;;
487;SDS011;16586;48.976;9.584;2023-02-22T11:07:17;2.77;;;2.57;;
487;SDS011;16586;48.976;9.584;2023-02-22T11:09:49;2.13;;;1.88;;
487;SDS011;16586;48.976;9.584;2023-02-22T11:12:19;2.30;;;2.10;;
487;SDS011;16586;48.976;9.584;2023-02-22T11:14:48;2.17;;;1.90;;
487;SDS011;16586;48.976;9.584;2023-02-22T11:17:17;2.88;;;2.30;;
487;SDS011;16586;48.976;9.584;2023-02-22T11:19:45;1.83;;;1.80;;
487;SDS011;16586;48.976;9.584;2023-02-22T11:22:17;2.25;;;2.05;;
487;SDS011;16586;48.976;9.584;2023-02-22T11:24:46;2.25;;;2.00;;
487;SDS011;16586;48.976;9.584;2023-02-22T11:27:23;2.33;;;2.10;;
487;SDS011;16586;48.976;9.584;2023-02-22T11:29:51;1.80;;;1.75;;
487;SDS011;16586;48.976;9.584;2023-02-22T11:32:18;2.00;;;1.70;;
487;SDS011;16586;48.976;9.584;2023-02-22T11:34:48;3.80;;;2.20;;
487;SDS011;16586;48.976;9.584;2023-02-22T11:37:27;2.30;;;2.10;;
487;SDS011;16586;48.976;9.584;2023-02-22T11:40:05;2.28;;;2.08;;
487;SDS011;16586;48.976;9.584;2023-02-22T11:42:39;1.80;;;1.67;;
487;SDS011;16586;48.976;9.584;2023-02-22T11:45:06;46.60;;;44.30;;
487;SDS011;16586;48.976;9.584;2023-02-22T11:47:34;4.22;;;3.97;;
487;SDS011;16586;48.976;9.584;2023-02-22T11:50:01;3.40;;;2.80;;
487;SDS011;16586;48.976;9.584;2023-02-22T11:52:37;2.28;;;2.17;;
487;SDS011;16586;48.976;9.584;2023-02-22T11:55:12;14.40;;;13.70;;
487;SDS011;16586;48.976;9.584;2023-02-22T11:57:49;2.63;;;2.17;;
487;SDS011;16586;48.976;9.584;2023-02-22T12:00:25;3.90;;;3.70;;
487;SDS011;16586;48.976;9.584;2023-02-22T12:08:45;3.20;;;3.00;;
487;SDS011;16586;48.976;9.584;2023-02-22T12:11:16;2.13;;;1.83;;
487;SDS011;16586;48.976;9.584;2023-02-22T12:13:51;2.83;;;2.60;;
487;SDS011;16586;48.976;9.584;2023-02-22T12:16:27;3.40;;;3.20;;
487;SDS011;16586;48.976;9.584;2023-02-22T12:19:07;8.40;;;7.95;;
487;SDS011;16586;48.976;9.584;2023-02-22T12:21:37;2.40;;;2.17;;
487;SDS011;16586;48.976;9.584;2023-02-22T12:24:07;2.90;;;2.70;;
487;SDS011;16586;48.976;9.584;2023-02-22T12:26:39;2.40;;;2.20;;
487;SDS011;16586;48.976;9.584;2023-02-22T12:29:10;2.00;;;1.70;;
487;SDS011;16586;48.976;9.584;2023-02-22T12:31:40;1.98;;;1.80;;
487;SDS011;16586;48.976;9.584;2023-02-22T12:34:12;3.00;;;2.53;;
487;SDS011;16586;48.976;9.584;2023-02-22T12:36:44;2.40;;;1.70;;
487;SDS011;16586;48.976;9.584;2023-02-22T12:39:23;2.33;;;2.15;;
487;SDS011;16586;48.976;9.584;2023-02-22T12:41:53;2.20;;;1.70;;
487;SDS011;16586;48.976;9.584;2023-02-22T12:44:23;2.90;;;2.40;;
487;SDS011;16586;48.976;9.584;2023-02-22T12:46:51;2.47;;;2.13;;
487;SDS011;16586;48.976;9.584;2023-02-22T12:49:24;2.90;;;1.90;;
487;SDS011;16586;48.976;9.584;2023-02-22T12:51:53;2.03;;;1.92;;
487;SDS011;16586;48.976;9.584;2023-02-22T12:54:24;2.63;;;2.03;;
487;SDS011;16586;48.976;9.584;2023-02-22T12:56:54;1.80;;;1.75;;
487;SDS011;16586;48.976;9.584;2023-02-22T12:59:28;2.00;;;1.67;;
487;SDS011;16586;48.976;9.584;2023-02-22T13:01:57;2.50;;;2.00;;
487;SDS011;16586;48.976;9.584;2023-02-22T13:04:25;1.55;;;1.23;;
487;SDS011;16586;48.976;9.584;2023-02-22T13:07:00;2.80;;;2.60;;
487;SDS011;16586;48.976;9.584;2023-02-22T13:09:43;2.10;;;1.80;;
487;SDS011;16586;48.976;9.584;2023-02-22T13:12:14;2.00;;;1.90;;
487;SDS011;16586;48.976;9.584;2023-02-22T13:14:53;2.20;;;1.90;;
487;SDS011;16586;48.976;9.584;2023-02-22T13:17:26;2.55;;;2.10;;
487;SDS011;16586;48.976;9.584;2023-02-22T13:19:57;2.90;;;1.50;;
487;SDS011;16586;48.976;9.584;2023-02-22T13:22:26;2.60;;;2.10;;
487;SDS011;16586;48.976;9.584;2023-02-22T13:24:57;2.33;;;2.10;;
487;SDS011;16586;48.976;9.584;2023-02-22T13:27:29;2.75;;;2.55;;
487;SDS011;16586;48.976;9.584;2023-02-22T13:30:00;2.45;;;2.30;;
487;SDS011;16586;48.976;9.584;2023-02-22T13:32:35;3.60;;;3.40;;
487;SDS011;16586;48.976;9.584;2023-02-22T13:35:09;3.00;;;2.80;;
487;SDS011;16586;48.976;9.584;2023-02-22T13:40:47;4.00;;;3.77;;
487;SDS011;16586;48.976;9.584;2023-02-22T13:43:26;4.30;;;4.03;;
487;SDS011;16586;48.976;9.584;2023-02-22T13:46:01;3.28;;;2.70;;
487;SDS011;16586;48.976;9.584;2023-02-22T13:51:31;2.50;;;2.40;;
487;SDS011;16586;48.976;9.584;2023-02-22T13:54:01;2.63;;;2.33;;
487;SDS011;16586;48.976;9.584;2023-02-22T13:56:29;3.28;;;2.17;;
487;SDS011;16586;48.976;9.584;2023-02-22T13:58:57;2.90;;;2.75;;
487;SDS011;16586;48.976;9.584;2023-02-22T14:01:36;2.30;;;1.95;;
487;SDS011;16586;48.976;9.584;2023-02-22T14:04:32;3.78;;;2.53;;
487;SDS011;16586;48.976;9.584;2023-02-22T14:07:01;2.20;;;1.90;;
487;SDS011;16586;48.976;9.584;2023-02-22T14:09:42;3.08;;;2.80;;
487;SDS011;16586;48.976;9.584;2023-02-22T14:15:14;2.40;;;1.93;;
487;SDS011;16586;48.976;9.584;2023-02-22T14:17:43;2.92;;;2.10;;
487;SDS011;16586;48.976;9.584;2023-02-22T14:20:22;3.05;;;2.30;;
487;SDS011;16586;48.976;9.584;2023-02-22T14:25:53;2.40;;;2.20;;
487;SDS011;16586;48.976;9.584;2023-02-22T14:28:37;2.60;;;1.90;;
487;SDS011;16586;48.976;9.584;2023-02-22T14:31:07;2.35;;;2.17;;
487;SDS011;16586;48.976;9.584;2023-02-22T14:33:56;2.60;;;2.50;;
487;SDS011;16586;48.976;9.584;2023-02-22T14:36:34;3.08;;;2.70;;
487;SDS011;16586;48.976;9.584;2023-02-22T14:39:16;4.40;;;4.10;;
487;SDS011;16586;48.976;9.584;2023-02-22T14:41:46;28.92;;;27.50;;
487;SDS011;16586;48.976;9.584;2023-02-22T14:44:15;33.67;;;32.03;;
487;SDS011;16586;48.976;9.584;2023-02-22T14:46:46;36.40;;;34.60;;
487;SDS011;16586;48.976;9.584;2023-02-22T14:49:16;33.72;;;32.08;;
487;SDS011;16586;48.976;9.584;2023-02-22T14:51:48;60.45;;;57.53;;
487;SDS011;16586;48.976;9.584;2023-02-22T14:54:18;53.72;;;51.13;;
487;SDS011;16586;48.976;9.584;2023-02-22T14:56:54;140.20;;;133.48;;
487;SDS011;16586;48.976;9.584;2023-02-22T14:59:25;137.35;;;130.77;;
487;SDS011;16586;48.976;9.584;2023-02-22T15:02:02;147.65;;;140.57;;
487;SDS011;16586;48.976;9.584;2023-02-22T15:04:32;241.90;;;230.30;;
487;SDS011;16586;48.976;9.584;2023-02-22T15:07:06;438.27;;;417.38;;
487;SDS011;16586;48.976;9.584;2023-02-22T15:09:36;396.15;;;377.20;;
487;SDS011;16586;48.976;9.584;2023-02-22T15:12:10;333.33;;;317.40;;
487;SDS011;16586;48.976;9.584;2023-02-22T15:15:10;298.50;;;284.23;;
487;SDS011;16586;48.976;9.584;2023-02-22T15:17:38;282.20;;;268.73;;
487;SDS011;16586;48.976;9.584;2023-02-22T15:20:05;279.87;;;266.47;;
487;SDS011;16586;48.976;9.584;2023-02-22T15:22:35;326.88;;;311.27;;
487;SDS011;16586;48.976;9.584;2023-02-22T15:25:03;290.38;;;276.50;;
487;SDS011;16586;48.976;9.584;2023-02-22T15:27:31;256.17;;;243.93;;
487;SDS011;16586;48.976;9.584;2023-02-22T15:30:02;297.30;;;283.10;;
487;SDS011;16586;48.976;9.584;2023-02-22T15:32:32;239.95;;;228.45;;
487;SDS011;16586;48.976;9.584;2023-02-22T15:35:13;376.42;;;358.45;;
487;SDS011;16586;48.976;9.584;2023-02-22T15:37:41;330.50;;;314.70;;
487;SDS011;16586;48.976;9.584;2023-02-22T15:40:12;336.75;;;320.65;;
487;SDS011;16586;48.976;9.584;2023-02-22T15:42:44;358.90;;;341.77;;
487;SDS011;16586;48.976;9.584;2023-02-22T15:45:15;373.13;;;355.33;;
487;SDS011;16586;48.976;9.584;2023-02-22T15:47:45;381.33;;;363.13;;
487;SDS011;16586;48.976;9.584;2023-02-22T15:50:13;433.30;;;412.63;;
487;SDS011;16586;48.976;9.584;2023-02-22T15:52:45;385.25;;;366.85;;
487;SDS011;16586;48.976;9.584;2023-02-22T15:55:13;114.95;;;109.45;;
487;SDS011;16586;48.976;9.584;2023-02-22T15:57:41;81.90;;;77.95;;
487;SDS011;16586;48.976;9.584;2023-02-22T16:00:17;94.72;;;90.15;;